createdAt,value
2023-05-13T00:01:49.269Z,35.05
2023-05-13T00:04:58.820Z,33.47
2023-05-13T00:07:59.447Z,30.02
2023-05-13T00:11:04.894Z,32.30
2023-05-13T00:14:20.202Z,39.35
2023-05-13T00:17:09.093Z,25.88
2023-05-13T00:20:02.133Z,26.27
2023-05-13T00:22:57.392Z,22.38
2023-05-13T00:25:57.965Z,22.67
2023-05-13T00:28:54.642Z,23.65
2023-05-13T00:31:46.841Z,28.17
2023-05-13T00:34:54.944Z,24.58
2023-05-13T00:37:34.780Z,31.13
2023-05-13T00:40:12.230Z,23.75
2023-05-13T00:42:53.671Z,29.70
2023-05-13T00:45:27.799Z,25.98
2023-05-13T00:48:18.721Z,25.42
2023-05-13T00:51:14.896Z,28.55
2023-05-13T00:54:06.316Z,23.90
2023-05-13T00:57:15.862Z,21.70
2023-05-13T01:00:20.601Z,25.13
2023-05-13T01:03:17.142Z,20.83
2023-05-13T01:06:40.318Z,21.55
2023-05-13T01:09:42.767Z,22.60
2023-05-13T01:12:47.202Z,26.27
2023-05-13T01:15:44.506Z,26.50
2023-05-13T01:18:25.342Z,23.27
2023-05-13T01:21:07.694Z,18.52
2023-05-13T01:24:30.834Z,21.42
2023-05-13T01:27:10.047Z,21.50
2023-05-13T01:30:06.386Z,23.35
2023-05-13T01:32:45.898Z,22.25
2023-05-13T01:35:54.482Z,24.45
2023-05-13T01:38:53.391Z,21.50
2023-05-13T01:41:48.646Z,28.17
2023-05-13T01:44:50.618Z,18.45
2023-05-13T01:47:33.982Z,17.45
2023-05-13T01:50:23.899Z,17.27
2023-05-13T01:53:43.216Z,18.55
2023-05-13T01:57:00.656Z,20.05
2023-05-13T02:00:29.724Z,21.92
2023-05-13T02:03:20.280Z,14.32
2023-05-13T02:06:35.042Z,12.30
2023-05-13T02:09:25.931Z,15.75
2023-05-13T02:12:18.318Z,18.25
2023-05-13T02:15:12.420Z,20.23
2023-05-13T02:18:06.724Z,23.27
2023-05-13T02:21:10.945Z,17.05
2023-05-13T02:23:55.654Z,23.83
2023-05-13T02:26:32.796Z,22.23
2023-05-13T02:29:12.251Z,18.08
2023-05-13T02:31:51.881Z,17.75
2023-05-13T02:34:32.547Z,12.68
2023-05-13T02:37:09.759Z,12.57
2023-05-13T02:39:57.064Z,12.10
2023-05-13T02:42:33.174Z,14.95
2023-05-13T02:45:19.675Z,18.05
2023-05-13T02:48:01.481Z,14.98
2023-05-13T02:50:42.514Z,14.93
2023-05-13T02:53:20.742Z,12.35
2023-05-13T02:56:06.151Z,11.30
2023-05-13T02:58:51.508Z,13.23
2023-05-13T03:01:29.312Z,15.90
2023-05-13T03:04:09.016Z,12.77
2023-05-13T03:06:48.381Z,14.68
2023-05-13T03:09:27.506Z,15.25
2023-05-13T03:12:10.880Z,11.27
2023-05-13T03:14:46.752Z,11.10
2023-05-13T03:17:52.109Z,11.40
2023-05-13T03:20:28.455Z,14.52
2023-05-13T03:23:13.914Z,21.25
2023-05-13T03:25:55.529Z,18.08
2023-05-13T03:28:30.984Z,16.23
2023-05-13T03:31:10.692Z,13.82
2023-05-13T03:34:04.467Z,15.65
2023-05-13T03:36:50.709Z,13.27
2023-05-13T03:39:34.734Z,18.25
2023-05-13T03:42:24.668Z,19.20
2023-05-13T03:45:10.502Z,20.67
2023-05-13T03:47:47.442Z,25.95
2023-05-13T03:50:58.340Z,13.68
2023-05-13T03:53:34.400Z,12.10
2023-05-13T03:56:16.284Z,15.65
2023-05-13T03:59:11.309Z,16.05
2023-05-13T04:01:48.183Z,17.23
2023-05-13T04:04:28.216Z,15.43
2023-05-13T04:07:11.045Z,16.13
2023-05-13T04:09:45.489Z,15.00
2023-05-13T04:12:28.313Z,21.50
2023-05-13T04:15:06.587Z,17.48
2023-05-13T04:17:49.486Z,17.40
2023-05-13T04:20:32.617Z,16.02
2023-05-13T04:23:15.197Z,20.42
2023-05-13T04:26:03.301Z,15.43
2023-05-13T04:28:47.724Z,16.98
2023-05-13T04:31:35.139Z,18.45
2023-05-13T04:34:27.846Z,20.08
2023-05-13T04:37:08.552Z,19.55
2023-05-13T04:40:01.877Z,19.25
2023-05-13T04:42:51.645Z,18.77
2023-05-13T04:45:41.911Z,26.50
2023-05-13T04:48:23.398Z,15.27
2023-05-13T04:51:06.547Z,18.35
2023-05-13T04:53:55.704Z,17.35
2023-05-13T04:56:36.365Z,19.35
2023-05-13T04:59:15.361Z,16.98
2023-05-13T05:01:53.263Z,31.15
2023-05-13T05:04:35.745Z,19.92
2023-05-13T05:07:30.927Z,13.80
2023-05-13T05:10:12.330Z,17.35
2023-05-13T05:12:56.512Z,24.38
2023-05-13T05:15:35.194Z,19.67
2023-05-13T05:18:16.092Z,16.38
2023-05-13T05:21:08.348Z,15.02
2023-05-13T05:23:44.655Z,21.13
2023-05-13T05:26:27.307Z,18.45
2023-05-13T05:29:13.469Z,13.63
2023-05-13T05:31:53.131Z,16.23
2023-05-13T05:34:36.094Z,13.73
2023-05-13T05:37:19.434Z,17.58
2023-05-13T05:40:03.707Z,19.77
2023-05-13T05:42:44.233Z,19.35
2023-05-13T05:45:26.400Z,20.65
2023-05-13T05:48:10.730Z,16.60
2023-05-13T05:50:58.697Z,15.13
2023-05-13T05:53:48.479Z,12.80
2023-05-13T05:56:34.582Z,14.32
2023-05-13T05:59:16.405Z,13.57
2023-05-13T06:02:06.869Z,19.03
2023-05-13T06:05:17.333Z,17.88
2023-05-13T06:08:01.979Z,17.83
2023-05-13T06:10:54.799Z,11.63
2023-05-13T06:13:38.872Z,17.95
2023-05-13T06:16:17.119Z,16.00
2023-05-13T06:19:18.643Z,15.35
2023-05-13T06:22:06.235Z,15.45
2023-05-13T06:24:54.976Z,15.80
2023-05-13T06:27:36.190Z,17.70
2023-05-13T06:30:20.725Z,10.98
2023-05-13T06:33:02.095Z,12.45
2023-05-13T06:35:50.550Z,15.68
2023-05-13T06:38:38.794Z,19.42
2023-05-13T06:41:21.470Z,12.82
2023-05-13T06:44:04.373Z,17.45
2023-05-13T06:47:03.498Z,16.52
2023-05-13T06:49:45.722Z,18.65
2023-05-13T06:52:33.215Z,22.65
2023-05-13T06:55:17.156Z,20.65
2023-05-13T06:57:59.141Z,21.30
2023-05-13T07:00:45.166Z,15.75
2023-05-13T07:03:44.872Z,17.27
2023-05-13T07:06:24.231Z,20.40
2023-05-13T07:09:20.111Z,18.08
2023-05-13T07:11:58.848Z,17.95
2023-05-13T07:14:41.134Z,21.08
2023-05-13T07:17:23.182Z,23.48
2023-05-13T07:20:05.326Z,19.38
2023-05-13T07:22:46.024Z,18.52
2023-05-13T07:25:31.500Z,17.02
2023-05-13T07:28:22.798Z,15.02
2023-05-13T07:31:00.881Z,19.50
2023-05-13T07:33:44.293Z,16.50
2023-05-13T07:36:31.315Z,15.23
2023-05-13T07:39:24.758Z,20.30
2023-05-13T07:42:05.929Z,13.75
2023-05-13T07:44:55.600Z,14.48
2023-05-13T07:47:32.760Z,15.90
2023-05-13T07:50:25.257Z,14.15
2023-05-13T07:53:16.610Z,20.35
2023-05-13T07:55:58.684Z,17.98
2023-05-13T08:02:06.003Z,19.45
2023-05-13T08:04:45.110Z,20.75
2023-05-13T08:07:28.176Z,18.77
2023-05-13T08:10:09.401Z,20.00
2023-05-13T08:12:52.307Z,25.85
2023-05-13T08:15:44.763Z,22.08
2023-05-13T08:18:36.682Z,15.80
2023-05-13T08:21:25.993Z,16.27
2023-05-13T08:24:08.941Z,16.48
2023-05-13T08:26:47.165Z,16.67
2023-05-13T08:29:35.739Z,19.13
2023-05-13T08:32:17.737Z,13.13
2023-05-13T08:35:07.155Z,14.40
2023-05-13T08:37:48.877Z,13.32
2023-05-13T08:40:27.757Z,14.70
2023-05-13T08:43:10.040Z,14.63
2023-05-13T08:45:50.292Z,17.88
2023-05-13T08:48:38.129Z,17.33
2023-05-13T08:51:19.210Z,11.00
2023-05-13T08:54:02.945Z,11.35
2023-05-13T08:56:47.533Z,11.65
2023-05-13T08:59:26.296Z,12.00
2023-05-13T09:02:10.211Z,11.73
2023-05-13T09:08:05.523Z,17.23
2023-05-13T09:10:44.990Z,20.02
2023-05-13T09:13:24.564Z,14.82
2023-05-13T09:16:07.709Z,16.65
2023-05-13T09:18:48.040Z,14.75
2023-05-13T09:21:56.751Z,24.75
2023-05-13T09:24:38.833Z,16.00
2023-05-13T09:27:16.366Z,17.23
2023-05-13T09:29:52.685Z,18.63
2023-05-13T09:32:37.347Z,19.58
2023-05-13T09:35:21.851Z,21.48
2023-05-13T09:38:08.125Z,18.07
2023-05-13T09:40:46.503Z,21.50
2023-05-13T09:43:30.232Z,19.20
2023-05-13T09:46:08.858Z,18.80
2023-05-13T09:49:03.959Z,24.97
2023-05-13T09:51:48.080Z,28.33
2023-05-13T09:54:46.166Z,15.33
2023-05-13T09:57:25.368Z,21.57
2023-05-13T10:00:31.652Z,18.33
2023-05-13T10:03:26.352Z,23.57
2023-05-13T10:06:14.042Z,23.27
2023-05-13T10:09:05.077Z,18.70
2023-05-13T10:11:53.163Z,28.10
2023-05-13T10:14:41.965Z,25.10
2023-05-13T10:17:21.894Z,20.90
2023-05-13T10:20:05.308Z,26.03
2023-05-13T10:22:46.589Z,28.10
2023-05-13T10:25:36.392Z,21.43
2023-05-13T10:28:17.163Z,22.03
2023-05-13T10:31:07.069Z,18.57
2023-05-13T10:33:49.381Z,23.00
2023-05-13T10:36:42.431Z,23.37
2023-05-13T10:39:58.346Z,22.03
2023-05-13T10:43:02.913Z,24.60
2023-05-13T10:46:08.645Z,18.23
2023-05-13T10:48:48.997Z,20.07
2023-05-13T10:51:41.368Z,20.30
2023-05-13T10:54:35.272Z,21.03
2023-05-13T10:57:21.113Z,24.20
2023-05-13T11:00:34.054Z,20.40
2023-05-13T11:03:34.255Z,20.73
2023-05-13T11:14:38.698Z,27.50
2023-05-13T11:17:23.234Z,26.63
2023-05-13T11:20:17.268Z,20.87
2023-05-13T11:22:57.684Z,20.10
2023-05-13T11:25:36.982Z,21.83
2023-05-13T11:28:46.643Z,21.40
2023-05-13T11:31:38.427Z,23.30
2023-05-13T11:34:30.724Z,19.17
2023-05-13T11:37:18.481Z,20.60
2023-05-13T11:39:59.024Z,25.17
2023-05-13T11:42:52.105Z,29.00
2023-05-13T11:45:32.025Z,21.70
2023-05-13T11:48:28.575Z,25.03
2023-05-13T11:51:19.757Z,23.93
2023-05-13T11:54:13.672Z,24.57
2023-05-13T11:56:53.752Z,21.33
2023-05-13T11:59:38.568Z,21.73
2023-05-13T12:02:26.540Z,29.27
2023-05-13T12:05:08.299Z,26.27
2023-05-13T12:08:07.057Z,24.77
2023-05-13T12:10:59.301Z,25.87
2023-05-13T12:13:42.115Z,25.30
2023-05-13T12:16:18.961Z,23.87
2023-05-13T12:19:10.834Z,34.43
2023-05-13T12:22:11.350Z,29.63
2023-05-13T12:25:03.772Z,24.00
2023-05-13T12:27:59.920Z,25.90
2023-05-13T12:30:42.605Z,29.13
2023-05-13T12:33:32.528Z,26.90
2023-05-13T12:36:37.267Z,24.07
2023-05-13T12:39:15.136Z,30.23
2023-05-13T12:42:05.154Z,24.37
2023-05-13T12:44:47.204Z,28.47
2023-05-13T12:47:32.122Z,26.90
2023-05-13T12:50:21.172Z,29.63
2023-05-13T12:53:03.363Z,26.57
2023-05-13T12:55:44.656Z,27.03
2023-05-13T12:58:27.308Z,24.30
2023-05-13T13:01:27.666Z,26.73
2023-05-13T13:04:08.680Z,31.80
2023-05-13T13:06:49.267Z,25.03
2023-05-13T13:09:46.517Z,25.70
2023-05-13T13:12:28.135Z,26.17
2023-05-13T13:15:15.830Z,26.10
2023-05-13T13:18:12.153Z,24.30
2023-05-13T13:21:26.737Z,31.27
2023-05-13T13:24:03.569Z,29.07
2023-05-13T13:26:46.515Z,28.40
2023-05-13T13:29:29.994Z,36.80
2023-05-13T13:32:22.151Z,26.67
2023-05-13T13:35:23.459Z,31.63
2023-05-13T13:38:06.497Z,29.97
2023-05-13T13:40:42.558Z,26.77
2023-05-13T13:43:24.876Z,29.20
2023-05-13T13:46:10.080Z,27.23
2023-05-13T13:48:46.705Z,25.90
2023-05-13T13:51:40.066Z,27.20
2023-05-13T13:54:22.471Z,34.30
2023-05-13T13:57:14.912Z,26.77
2023-05-13T14:00:07.855Z,36.03
2023-05-13T14:02:47.483Z,29.73
2023-05-13T14:05:34.016Z,27.03
2023-05-13T14:08:42.993Z,33.10
2023-05-13T14:11:26.900Z,30.80
2023-05-13T14:14:08.395Z,27.80
2023-05-13T14:16:49.186Z,32.47
2023-05-13T14:19:33.706Z,31.00
2023-05-13T14:22:12.106Z,28.60
2023-05-13T14:25:05.511Z,31.13
2023-05-13T14:31:12.583Z,30.43
2023-05-13T14:33:51.415Z,37.43
2023-05-13T14:36:40.394Z,29.77
2023-05-13T14:39:24.710Z,28.10
2023-05-13T14:42:04.354Z,31.67
2023-05-13T14:44:53.859Z,30.70
2023-05-13T14:47:42.572Z,23.53
2023-05-13T14:50:29.530Z,32.10
2023-05-13T14:53:11.735Z,28.83
2023-05-13T14:55:51.371Z,30.80
2023-05-13T14:58:30.150Z,34.07
2023-05-13T15:01:12.117Z,31.43
2023-05-13T15:04:04.396Z,28.70
2023-05-13T15:06:49.804Z,40.53
2023-05-13T15:09:35.148Z,29.23
2023-05-13T15:12:27.483Z,35.47
2023-05-13T15:15:11.659Z,27.97
2023-05-13T15:17:53.490Z,31.17
2023-05-13T15:21:04.309Z,28.10
2023-05-13T15:23:48.624Z,26.53
2023-05-13T15:26:34.800Z,32.80
2023-05-13T15:29:39.072Z,28.27
2023-05-13T15:32:16.972Z,31.20
2023-05-13T15:34:56.341Z,33.17
2023-05-13T15:37:58.398Z,34.03
2023-05-13T15:40:37.703Z,33.07
2023-05-13T15:43:20.460Z,40.07
2023-05-13T15:46:01.023Z,30.13
2023-05-13T15:48:41.391Z,34.10
2023-05-13T15:51:31.857Z,34.53
2023-05-13T15:54:19.821Z,33.30
2023-05-13T15:57:14.136Z,31.90
2023-05-13T15:59:55.090Z,34.70
2023-05-13T16:02:37.525Z,35.57
2023-05-13T16:05:27.558Z,30.13
2023-05-13T16:08:03.236Z,31.70
2023-05-13T16:10:49.230Z,35.87
2023-05-13T16:13:28.310Z,40.67
2023-05-13T16:16:14.763Z,31.37
2023-05-13T16:19:01.957Z,31.83
2023-05-13T16:21:42.792Z,30.47
2023-05-13T16:24:30.073Z,39.87
2023-05-13T16:27:11.066Z,33.60
2023-05-13T16:29:53.698Z,33.77
2023-05-13T16:32:32.141Z,34.27
2023-05-13T16:35:13.953Z,33.50
2023-05-13T16:37:53.017Z,32.97
2023-05-13T16:40:34.309Z,34.53
2023-05-13T16:43:31.072Z,31.30
2023-05-13T16:46:17.678Z,32.27
2023-05-13T16:49:00.036Z,38.27
2023-05-13T16:54:37.079Z,36.73
2023-05-13T16:57:23.565Z,39.30
2023-05-13T17:00:06.650Z,32.63
2023-05-13T17:02:42.788Z,32.67
2023-05-13T17:05:21.333Z,38.83
2023-05-13T17:07:57.823Z,43.47
2023-05-13T17:10:35.739Z,34.87
2023-05-13T17:13:15.968Z,41.23
2023-05-13T17:15:59.250Z,39.97
2023-05-13T17:18:48.694Z,34.73
2023-05-13T17:21:28.228Z,36.97
2023-05-13T17:24:07.400Z,37.07
2023-05-13T17:26:48.642Z,40.63
2023-05-13T17:29:28.833Z,32.20
2023-05-13T17:32:10.270Z,32.43
2023-05-13T17:34:53.045Z,40.10
2023-05-13T17:37:39.547Z,32.53
2023-05-13T17:40:16.922Z,32.50
2023-05-13T17:42:57.695Z,38.10
2023-05-13T17:45:32.362Z,37.27
2023-05-13T17:48:14.797Z,39.40
2023-05-13T17:50:53.997Z,43.30
2023-05-13T17:53:31.181Z,39.90
2023-05-13T17:56:12.375Z,37.90
2023-05-13T17:58:56.458Z,41.73
2023-05-13T18:01:34.043Z,34.70
2023-05-13T18:04:11.749Z,42.73
2023-05-13T18:06:52.020Z,36.23
2023-05-13T18:09:27.577Z,38.20
2023-05-13T18:12:15.475Z,39.73
2023-05-13T18:14:53.436Z,34.97
2023-05-13T18:17:31.035Z,36.87
2023-05-13T18:20:09.838Z,34.60
2023-05-13T18:22:49.179Z,37.87
2023-05-13T18:25:27.461Z,37.53
2023-05-13T18:28:09.062Z,33.33
2023-05-13T18:30:47.496Z,40.37
2023-05-13T18:33:25.829Z,38.13
2023-05-13T18:36:09.833Z,41.73
2023-05-13T18:38:48.803Z,41.80
2023-05-13T18:41:25.439Z,42.43
2023-05-13T18:44:01.698Z,43.50
2023-05-13T18:46:40.017Z,40.77
2023-05-13T18:49:18.206Z,40.13
2023-05-13T18:52:00.861Z,41.67
2023-05-13T18:54:35.784Z,41.97
2023-05-13T18:57:16.195Z,45.87
2023-05-13T18:59:56.358Z,39.70
2023-05-13T19:02:36.696Z,41.60
2023-05-13T19:05:19.124Z,36.57
2023-05-13T19:08:02.308Z,40.23
2023-05-13T19:10:43.248Z,43.77
2023-05-13T19:13:28.633Z,40.40
2023-05-13T19:16:12.813Z,40.47
2023-05-13T19:18:51.539Z,38.50
2023-05-13T19:21:27.014Z,39.73
2023-05-13T19:24:04.891Z,41.43
2023-05-13T19:26:44.946Z,40.20
2023-05-13T19:29:18.477Z,41.57
2023-05-13T19:31:53.871Z,46.93
2023-05-13T19:34:28.148Z,41.30
2023-05-13T19:37:06.746Z,50.70
2023-05-13T19:39:43.133Z,39.63
2023-05-13T19:42:20.910Z,41.80
2023-05-13T19:44:56.132Z,46.30
2023-05-13T19:47:32.313Z,47.73
2023-05-13T19:50:08.623Z,56.53
2023-05-13T19:52:45.021Z,44.07
2023-05-13T19:55:25.452Z,42.37
2023-05-13T19:57:59.061Z,44.30
2023-05-13T20:00:32.416Z,41.33
2023-05-13T20:03:10.300Z,42.27
2023-05-13T20:05:45.651Z,42.10
2023-05-13T20:08:21.324Z,45.20
2023-05-13T20:10:57.356Z,46.30
2023-05-13T20:13:31.894Z,52.13
2023-05-13T20:16:07.549Z,39.63
2023-05-13T20:18:43.450Z,43.17
2023-05-13T20:21:17.702Z,47.90
2023-05-13T20:23:57.924Z,47.37
2023-05-13T20:26:37.577Z,54.53
2023-05-13T20:29:12.269Z,45.87
2023-05-13T20:31:48.714Z,46.70
2023-05-13T20:34:23.610Z,41.30
2023-05-13T20:36:57.346Z,44.27
2023-05-13T20:39:32.077Z,42.93
2023-05-13T20:42:09.435Z,44.97
2023-05-13T20:44:44.124Z,50.20
2023-05-13T20:47:18.127Z,41.53
2023-05-13T20:49:51.700Z,42.70
2023-05-13T20:52:25.426Z,50.73
2023-05-13T20:55:00.978Z,49.53
2023-05-13T20:57:38.754Z,47.90
2023-05-13T21:00:15.920Z,47.07
2023-05-13T21:02:52.811Z,51.37
2023-05-13T21:05:27.171Z,49.23
2023-05-13T21:08:01.097Z,47.77
2023-05-13T21:10:37.350Z,48.77
2023-05-13T21:13:14.564Z,51.10
2023-05-13T21:15:48.231Z,54.80
2023-05-13T21:18:22.634Z,55.20
2023-05-13T21:20:59.091Z,45.07
2023-05-13T21:23:36.743Z,47.73
2023-05-13T21:26:11.821Z,49.53
2023-05-13T21:28:49.754Z,48.70
2023-05-13T21:31:24.271Z,62.13
2023-05-13T21:33:59.494Z,59.93
2023-05-13T21:36:32.996Z,61.70
2023-05-13T21:39:09.333Z,62.57
2023-05-13T21:41:45.397Z,60.33
2023-05-13T21:44:25.701Z,57.37
2023-05-13T21:47:04.480Z,59.07
2023-05-13T21:49:40.609Z,56.03
2023-05-13T21:52:13.839Z,55.57
2023-05-13T21:54:51.286Z,54.27
2023-05-13T21:57:28.363Z,61.30
2023-05-13T22:00:05.295Z,57.17
2023-05-13T22:02:53.025Z,57.37
2023-05-13T22:05:28.168Z,56.47
2023-05-13T22:08:03.542Z,58.30
2023-05-13T22:10:41.326Z,62.63
2023-05-13T22:13:15.226Z,59.67
2023-05-13T22:15:52.761Z,67.70
2023-05-13T22:18:27.178Z,58.20
2023-05-13T22:21:01.871Z,63.47
2023-05-13T22:23:39.290Z,64.07
2023-05-13T22:26:14.855Z,64.07
2023-05-13T22:28:52.654Z,69.27
2023-05-13T22:31:27.955Z,70.37
2023-05-13T22:34:02.416Z,64.03
2023-05-13T22:36:39.890Z,64.53
2023-05-13T22:39:17.392Z,69.73
2023-05-13T22:41:51.282Z,59.63
2023-05-13T22:44:26.403Z,64.33
2023-05-13T22:47:02.724Z,59.23
2023-05-13T22:49:37.122Z,67.53
2023-05-13T22:52:12.333Z,57.00
2023-05-13T22:54:48.256Z,59.87
2023-05-13T22:57:23.528Z,72.03
2023-05-13T23:00:00.441Z,55.90
2023-05-13T23:02:37.244Z,55.63
2023-05-13T23:05:16.886Z,54.77
2023-05-13T23:07:51.872Z,62.30
2023-05-13T23:10:29.851Z,68.97
2023-05-13T23:13:10.959Z,55.88
2023-05-13T23:15:43.794Z,51.17
2023-05-13T23:18:21.922Z,47.58
2023-05-13T23:20:58.191Z,57.10
2023-05-13T23:23:32.659Z,63.53
2023-05-13T23:26:07.106Z,56.70
2023-05-13T23:28:42.673Z,67.93
2023-05-13T23:31:18.649Z,59.27
2023-05-13T23:33:56.823Z,61.87
2023-05-13T23:36:31.238Z,63.17
2023-05-13T23:39:09.151Z,52.70
2023-05-13T23:41:49.217Z,59.73
2023-05-13T23:44:24.924Z,62.50
2023-05-13T23:47:00.695Z,58.63
2023-05-13T23:49:39.177Z,69.33
2023-05-13T23:52:17.039Z,63.43
2023-05-13T23:54:55.430Z,67.40
2023-05-13T23:57:32.328Z,59.40
